Topsail Beach, North Carolina
Current Conditions -  °F | °C
As of 11:56 AM on Wednesday 22 Oct 2014 (Local Time) from KNCA Reporting Station
Clear Clear  
Wind Chill: 63°   Ceiling: Unl
Heat Index: 63°   Visibility: 10mi
Dew Point: 45°   Wind: 14mph
Humidity: 52%   Direction: 330°NNW
Pressure: 29.94"   Gusts: 22mph
Location:  34.4895°N, 77.514°W
Report Text: KNCA 221556Z AUTO 33012G19KT 10SM CLR 17/07 A2994 RMK AO2 SLP141 T01720072
Loading
Personal Weather Stations






























Interactive Weather Map New forecast layout! Learn more

10-Day Weather Forecast

Advertisements
Track Severe Weather on mobile